Time;durP1;ratioP1;P1;durP2;ratioP2;P2;SDS_P1;SDS_P2;PMS_P1;PMS_P2;Temp;Humidity;BMP_temperature;BMP_pressure;BME280_temperature;BME280_humidity;BME280_pressure;Samples;Min_cycle;Max_cycle;Signal;HPM_P1;HPM_P2
2022/05/24 00:01:23;;;;;;;0.30;0.30;;;;;;;;;;5053785;28;20209;-86
2022/05/24 00:03:51;;;;;;;0.30;0.30;;;;;;;;;;5053468;28;20243;-86
2022/05/24 00:06:20;;;;;;;0.40;0.40;;;;;;;;;;5054743;28;20221;-86
2022/05/24 00:08:49;;;;;;;0.30;0.30;;;;;;;;;;5053156;28;20205;-86
2022/05/24 00:11:18;;;;;;;0.30;0.30;;;;;;;;;;5053241;28;20208;-86
2022/05/24 00:13:46;;;;;;;0.30;0.30;;;;;;;;;;5052835;28;20200;-86
2022/05/24 00:16:15;;;;;;;1.47;1.47;;;;;;;;;;5053088;28;20200;-85
2022/05/24 00:18:44;;;;;;;0.30;0.30;;;;;;;;;;5053351;28;20196;-85
2022/05/24 00:21:12;;;;;;;0.40;0.40;;;;;;;;;;5052590;28;20198;-86
2022/05/24 00:23:40;;;;;;;0.30;0.30;;;;;;;;;;5053239;28;20312;-86
2022/05/24 00:26:11;;;;;;;0.30;0.30;;;;;;;;;;5054302;28;20220;-86
2022/05/24 00:28:39;;;;;;;0.30;0.30;;;;;;;;;;5053420;28;20217;-86
2022/05/24 00:31:08;;;;;;;0.30;0.30;;;;;;;;;;5054154;28;20205;-86
2022/05/24 00:33:36;;;;;;;0.30;0.30;;;;;;;;;;5053087;28;20205;-86
2022/05/24 00:36:05;;;;;;;0.30;0.30;;;;;;;;;;5054018;28;20204;-86
2022/05/24 00:38:36;;;;;;;0.30;0.30;;;;;;;;;;5088918;28;20239;-86
2022/05/24 00:41:22;;;;;;;0.30;0.30;;;;;;;;;;5094271;28;20234;-87
2022/05/24 00:43:52;;;;;;;0.30;0.30;;;;;;;;;;5059590;28;20286;-86
2022/05/24 00:46:22;;;;;;;0.30;0.30;;;;;;;;;;5056271;28;20274;-86
2022/05/24 00:48:53;;;;;;;0.30;0.30;;;;;;;;;;5056257;28;20237;-86
2022/05/24 00:51:24;;;;;;;0.30;0.30;;;;;;;;;;5056265;28;20220;-86
2022/05/24 00:53:54;;;;;;;0.37;0.37;;;;;;;;;;5056358;28;20199;-86
2022/05/24 00:56:33;;;;;;;0.30;0.30;;;;;;;;;;5073750;28;20192;-86
2022/05/24 00:59:03;;;;;;;0.30;0.30;;;;;;;;;;5055792;28;20205;-86
2022/05/24 01:01:34;;;;;;;0.30;0.30;;;;;;;;;;5055677;28;20204;-86
2022/05/24 01:04:02;;;;;;;0.30;0.30;;;;;;;;;;5055566;28;20220;-86
2022/05/24 01:06:31;;;;;;;0.30;0.30;;;;;;;;;;5055525;28;20240;-86
2022/05/24 01:09:01;;;;;;;0.30;0.30;;;;;;;;;;5056893;28;20234;-85
2022/05/24 01:11:32;;;;;;;0.30;0.30;;;;;;;;;;5059521;28;20213;-85
2022/05/24 01:14:01;;;;;;;0.30;0.30;;;;;;;;;;5077892;28;20207;-85
2022/05/24 01:16:29;;;;;;;0.30;0.30;;;;;;;;;;5060648;28;20262;-85
2022/05/24 01:18:59;;;;;;;0.40;0.40;;;;;;;;;;5078056;28;20197;-86
2022/05/24 01:21:28;;;;;;;0.30;0.30;;;;;;;;;;5077847;28;20619;-86
2022/05/24 01:23:59;;;;;;;0.30;0.30;;;;;;;;;;5060090;28;20197;-86
2022/05/24 01:26:36;;;;;;;0.40;0.40;;;;;;;;;;5077391;28;20225;-86
2022/05/24 01:29:06;;;;;;;0.30;0.30;;;;;;;;;;5059282;28;20294;-85
2022/05/24 01:37:05;;;;;;;0.30;0.30;;;;;;;;;;5059782;28;20240;-86
2022/05/24 01:39:33;;;;;;;0.30;0.30;;;;;;;;;;5077964;28;20201;-86
2022/05/24 01:42:04;;;;;;;0.30;0.30;;;;;;;;;;5061090;28;20211;-85
2022/05/24 01:44:36;;;;;;;0.30;0.30;;;;;;;;;;5079401;28;20208;-85
2022/05/24 01:47:04;;;;;;;0.30;0.30;;;;;;;;;;5079439;28;20219;-85
2022/05/24 01:49:34;;;;;;;0.30;0.30;;;;;;;;;;5079211;28;20204;-85
2022/05/24 01:52:05;;;;;;;0.30;0.30;;;;;;;;;;5066740;28;20212;-86
2022/05/24 01:54:37;;;;;;;0.30;0.30;;;;;;;;;;5091595;28;20201;-85
2022/05/24 01:57:10;;;;;;;0.30;0.30;;;;;;;;;;5059009;28;20288;-85
2022/05/24 01:59:40;;;;;;;0.30;0.30;;;;;;;;;;5071729;28;20212;-85
2022/05/24 02:04:45;;;;;;;0.30;0.30;;;;;;;;;;5068554;22;20323;-85
2022/05/24 02:07:15;;;;;;;0.30;0.30;;;;;;;;;;5012303;28;20235;-86
2022/05/24 02:09:44;;;;;;;0.30;0.30;;;;;;;;;;4977336;28;20204;-85
2022/05/24 02:12:17;;;;;;;0.30;0.30;;;;;;;;;;4985274;28;20281;-85
2022/05/24 02:14:48;;;;;;;0.30;0.30;;;;;;;;;;4997474;28;20208;-85
2022/05/24 02:17:20;;;;;;;0.33;0.33;;;;;;;;;;4997168;28;20203;-85
2022/05/24 02:19:49;;;;;;;0.37;0.37;;;;;;;;;;4996047;28;20207;-85
2022/05/24 02:22:20;;;;;;;0.30;0.30;;;;;;;;;;4976040;28;20224;-85
2022/05/24 02:24:54;;;;;;;0.30;0.30;;;;;;;;;;4976479;28;20208;-85
2022/05/24 02:27:44;;;;;;;0.30;0.30;;;;;;;;;;5546959;22;20257;-84
2022/05/24 02:30:12;;;;;;;0.30;0.30;;;;;;;;;;4988755;28;20216;-85
2022/05/24 02:32:41;;;;;;;0.30;0.30;;;;;;;;;;4995711;28;20207;-84
2022/05/24 02:35:09;;;;;;;0.30;0.30;;;;;;;;;;4995600;28;20210;-86
2022/05/24 02:37:38;;;;;;;0.30;0.30;;;;;;;;;;4976813;28;20199;-85
2022/05/24 02:42:57;;;;;;;0.30;0.30;;;;;;;;;;4944088;28;20257;-85
2022/05/24 02:45:25;;;;;;;0.30;0.30;;;;;;;;;;4995629;28;20218;-84
2022/05/24 02:47:54;;;;;;;0.30;0.30;;;;;;;;;;4995361;28;20225;-85
2022/05/24 02:50:22;;;;;;;0.30;0.30;;;;;;;;;;4994952;28;20218;-84
2022/05/24 02:52:51;;;;;;;0.30;0.30;;;;;;;;;;4995876;28;20215;-85
2022/05/24 02:55:20;;;;;;;0.30;0.30;;;;;;;;;;4996146;28;20207;-85
2022/05/24 02:57:49;;;;;;;0.30;0.30;;;;;;;;;;4994404;28;20288;-85
2022/05/24 03:00:20;;;;;;;0.30;0.30;;;;;;;;;;4995684;28;20287;-85
2022/05/24 03:02:49;;;;;;;0.30;0.30;;;;;;;;;;4996512;28;20200;-85
2022/05/24 03:05:18;;;;;;;1.90;1.90;;;;;;;;;;4996133;28;20230;-86
2022/05/24 03:10:33;;;;;;;0.30;0.30;;;;;;;;;;4995545;28;20215;-85
2022/05/24 03:15:49;;;;;;;0.30;0.30;;;;;;;;;;4995265;28;20210;-85
2022/05/24 03:18:19;;;;;;;0.30;0.30;;;;;;;;;;4995085;28;20208;-85
2022/05/24 03:20:47;;;;;;;0.30;0.30;;;;;;;;;;5011427;28;20211;-85
2022/05/24 03:23:16;;;;;;;0.30;0.30;;;;;;;;;;5011292;28;20218;-85
2022/05/24 03:25:45;;;;;;;0.30;0.30;;;;;;;;;;4995110;28;20206;-85
2022/05/24 03:28:13;;;;;;;0.30;0.30;;;;;;;;;;5010808;28;20239;-85
2022/05/24 03:30:43;;;;;;;0.30;0.30;;;;;;;;;;4994774;28;20215;-85
2022/05/24 03:33:13;;;;;;;0.30;0.30;;;;;;;;;;4994840;28;20211;-85
2022/05/24 03:35:42;;;;;;;0.30;0.30;;;;;;;;;;5011413;28;20257;-85
2022/05/24 03:38:10;;;;;;;0.57;0.57;;;;;;;;;;4995651;28;20200;-85
2022/05/24 03:40:39;;;;;;;0.40;0.40;;;;;;;;;;4994461;28;20261;-85
2022/05/24 03:43:11;;;;;;;0.30;0.30;;;;;;;;;;4994722;28;20203;-85
2022/05/24 03:45:40;;;;;;;0.30;0.30;;;;;;;;;;4994508;28;20258;-84
2022/05/24 03:48:15;;;;;;;0.30;0.30;;;;;;;;;;4994749;28;20219;-84
2022/05/24 03:50:43;;;;;;;0.30;0.30;;;;;;;;;;5011135;28;20273;-85
2022/05/24 03:53:12;;;;;;;0.30;0.30;;;;;;;;;;4994568;28;20256;-85
2022/05/24 03:55:40;;;;;;;0.30;0.30;;;;;;;;;;4995689;28;20206;-85
2022/05/24 03:58:08;;;;;;;0.30;0.30;;;;;;;;;;4994302;28;20253;-85
2022/05/24 04:00:56;;;;;;;0.40;0.40;;;;;;;;;;5579308;22;20244;-79
2022/05/24 04:03:25;;;;;;;0.30;0.30;;;;;;;;;;5026504;28;20217;-79
2022/05/24 04:05:54;;;;;;;0.30;0.30;;;;;;;;;;5047528;28;20240;-79
2022/05/24 04:08:26;;;;;;;0.30;0.30;;;;;;;;;;5036302;28;20217;-79
2022/05/24 04:11:02;;;;;;;0.40;0.40;;;;;;;;;;5032724;28;20304;-79
2022/05/24 04:13:31;;;;;;;0.40;0.40;;;;;;;;;;5016475;28;20210;-80
2022/05/24 04:15:59;;;;;;;0.30;0.30;;;;;;;;;;5032578;28;20312;-80
2022/05/24 04:18:29;;;;;;;0.70;0.70;;;;;;;;;;5027681;28;20297;-80
2022/05/24 04:20:58;;;;;;;0.30;0.30;;;;;;;;;;5053748;28;20198;-80
2022/05/24 04:23:27;;;;;;;0.30;0.30;;;;;;;;;;5035805;28;20193;-79
2022/05/24 04:25:58;;;;;;;0.30;0.30;;;;;;;;;;5053532;28;20189;-80
2022/05/24 04:28:27;;;;;;;0.40;0.40;;;;;;;;;;5649296;22;20246;-85
2022/05/24 04:31:01;;;;;;;0.30;0.30;;;;;;;;;;5024745;28;20215;-84
2022/05/24 04:33:31;;;;;;;0.40;0.40;;;;;;;;;;5033088;28;20192;-85
2022/05/24 04:35:59;;;;;;;0.30;0.30;;;;;;;;;;5016780;28;20206;-85
2022/05/24 04:38:28;;;;;;;0.30;0.30;;;;;;;;;;5047728;28;20206;-86
2022/05/24 04:43:42;;;;;;;0.47;0.47;;;;;;;;;;5053643;28;20218;-85
2022/05/24 04:46:12;;;;;;;0.30;0.30;;;;;;;;;;5036436;28;20215;-86
2022/05/24 04:48:42;;;;;;;0.30;0.30;;;;;;;;;;5036031;28;20225;-85
2022/05/24 04:51:10;;;;;;;0.30;0.30;;;;;;;;;;5036353;28;20200;-85
2022/05/24 04:53:48;;;;;;;;;;;;;;;;;;;;;
2022/05/24 04:59:09;;;;;;;0.30;0.30;;;;;;;;;;5040599;22;20236;-80
2022/05/24 05:01:37;;;;;;;0.40;0.40;;;;;;;;;;5035608;28;20201;-80
2022/05/24 05:04:07;;;;;;;0.30;0.30;;;;;;;;;;5053525;28;20212;-80
2022/05/24 05:06:36;;;;;;;0.30;0.30;;;;;;;;;;5035654;28;20197;-79
2022/05/24 05:09:04;;;;;;;0.33;0.33;;;;;;;;;;5052079;28;20240;-79
2022/05/24 05:11:33;;;;;;;0.30;0.30;;;;;;;;;;5035512;28;20267;-79
2022/05/24 05:14:01;;;;;;;0.90;0.90;;;;;;;;;;5035526;28;20209;-80
2022/05/24 05:16:30;;;;;;;0.40;0.40;;;;;;;;;;5015819;28;20205;-80
2022/05/24 05:18:58;;;;;;;0.30;0.30;;;;;;;;;;5033334;28;20193;-80
2022/05/24 05:21:31;;;;;;;0.37;0.37;;;;;;;;;;5031989;28;20214;-80
2022/05/24 05:23:59;;;;;;;0.30;0.30;;;;;;;;;;5015811;28;20193;-80
2022/05/24 05:26:28;;;;;;;0.30;0.30;;;;;;;;;;5032391;28;20206;-80
2022/05/24 05:28:57;;;;;;;0.40;0.40;;;;;;;;;;5033134;28;20214;-80
2022/05/24 05:31:26;;;;;;;0.30;0.30;;;;;;;;;;5015792;28;20202;-80
2022/05/24 05:33:55;;;;;;;0.70;0.70;;;;;;;;;;5015811;28;20205;-80
2022/05/24 05:36:24;;;;;;;0.30;0.30;;;;;;;;;;5032883;28;20269;-80
2022/05/24 05:38:54;;;;;;;0.30;0.30;;;;;;;;;;5031796;28;20199;-80
2022/05/24 05:41:24;;;;;;;0.23;0.23;;;;;;;;;;5033138;28;20198;-80
2022/05/24 05:43:53;;;;;;;0.30;0.30;;;;;;;;;;5015380;28;20197;-80
2022/05/24 05:46:21;;;;;;;2.60;2.60;;;;;;;;;;5031756;28;20199;-80
2022/05/24 05:48:50;;;;;;;0.30;0.30;;;;;;;;;;5032861;28;20210;-80
2022/05/24 05:51:19;;;;;;;0.30;0.30;;;;;;;;;;5033113;28;20210;-80
2022/05/24 05:53:48;;;;;;;1.67;1.67;;;;;;;;;;5032103;28;20198;-79
2022/05/24 05:56:20;;;;;;;0.30;0.30;;;;;;;;;;5017297;28;20470;-80
2022/05/24 05:58:49;;;;;;;0.30;0.30;;;;;;;;;;5035430;28;20359;-80
2022/05/24 06:01:18;;;;;;;0.30;0.30;;;;;;;;;;5019012;28;20202;-79
2022/05/24 06:03:47;;;;;;;0.40;0.40;;;;;;;;;;5036500;28;20206;-79
2022/05/24 06:06:17;;;;;;;0.30;0.30;;;;;;;;;;5026851;28;20212;-79
2022/05/24 06:08:45;;;;;;;0.30;0.30;;;;;;;;;;5038826;28;20230;-79
2022/05/24 06:11:13;;;;;;;0.40;0.40;;;;;;;;;;5038640;28;20252;-80
2022/05/24 06:13:44;;;;;;;0.30;0.30;;;;;;;;;;5039107;28;20212;-79
2022/05/24 06:16:13;;;;;;;0.30;0.30;;;;;;;;;;5038671;28;20240;-78
2022/05/24 06:18:42;;;;;;;0.30;0.30;;;;;;;;;;5038696;28;20264;-78
2022/05/24 06:21:11;;;;;;;0.30;0.30;;;;;;;;;;5038217;28;20198;-78
2022/05/24 06:23:40;;;;;;;0.30;0.30;;;;;;;;;;5038286;28;20213;-78
2022/05/24 06:26:09;;;;;;;0.40;0.40;;;;;;;;;;5055949;28;20201;-77
2022/05/24 06:28:38;;;;;;;0.30;0.30;;;;;;;;;;5038396;28;20312;-78
2022/05/24 06:31:07;;;;;;;0.30;0.30;;;;;;;;;;5038377;28;20217;-79
2022/05/24 06:33:36;;;;;;;0.33;0.33;;;;;;;;;;5038297;28;20202;-80
2022/05/24 06:36:05;;;;;;;0.30;0.30;;;;;;;;;;5037995;28;20217;-80
2022/05/24 06:38:33;;;;;;;0.30;0.30;;;;;;;;;;5037864;28;20259;-80
2022/05/24 06:41:02;;;;;;;0.30;0.30;;;;;;;;;;5037986;28;20203;-80
2022/05/24 06:43:30;;;;;;;0.30;0.30;;;;;;;;;;5037750;28;20208;-80
2022/05/24 06:45:59;;;;;;;0.40;0.40;;;;;;;;;;5038266;28;20206;-80
2022/05/24 06:48:32;;;;;;;0.40;0.40;;;;;;;;;;5038185;28;20247;-80
2022/05/24 06:51:02;;;;;;;0.40;0.40;;;;;;;;;;5038293;28;20303;-80
2022/05/24 06:53:34;;;;;;;0.37;0.37;;;;;;;;;;5037765;28;20211;-80
2022/05/24 06:56:03;;;;;;;0.60;0.60;;;;;;;;;;5055539;28;20262;-81
2022/05/24 06:58:36;;;;;;;0.30;0.30;;;;;;;;;;5037660;28;20258;-80
2022/05/24 07:04:24;;;;;;;;;;;;;;;;;;;;;
2022/05/24 07:06:59;;;;;;;0.40;0.40;;;;;;;;;;5017297;28;20217;-80
2022/05/24 07:09:31;;;;;;;0.30;0.30;;;;;;;;;;5037498;28;20221;-80
2022/05/24 07:12:04;;;;;;;0.40;0.40;;;;;;;;;;5037525;28;20213;-81
2022/05/24 07:14:40;;;;;;;0.40;0.40;;;;;;;;;;5037454;28;20293;-81
2022/05/24 07:17:09;;;;;;;0.30;0.30;;;;;;;;;;5037544;28;20211;-81
2022/05/24 07:19:38;;;;;;;0.30;0.30;;;;;;;;;;5037472;28;20209;-81
2022/05/24 07:22:09;;;;;;;0.30;0.30;;;;;;;;;;5037345;28;20236;-81
2022/05/24 07:24:38;;;;;;;0.30;0.30;;;;;;;;;;5037329;28;20213;-80
2022/05/24 07:27:10;;;;;;;0.30;0.30;;;;;;;;;;5036937;28;20361;-80
2022/05/24 07:29:39;;;;;;;0.30;0.30;;;;;;;;;;5037188;28;20222;-81
2022/05/24 07:32:09;;;;;;;0.30;0.30;;;;;;;;;;5037328;28;20207;-80
2022/05/24 07:34:38;;;;;;;0.30;0.30;;;;;;;;;;5037250;28;20201;-81
2022/05/24 07:37:07;;;;;;;0.30;0.30;;;;;;;;;;5037079;28;20203;-81
2022/05/24 07:39:37;;;;;;;0.40;0.40;;;;;;;;;;5037032;28;20266;-81
2022/05/24 07:47:45;;;;;;;0.30;0.30;;;;;;;;;;5036759;28;20212;-81
2022/05/24 07:50:21;;;;;;;1.03;1.03;;;;;;;;;;5037155;28;20224;-80
2022/05/24 07:52:50;;;;;;;0.30;0.30;;;;;;;;;;5037209;28;20212;-81
2022/05/24 07:55:31;;;;;;;0.30;0.30;;;;;;;;;;5031774;28;20210;-80
2022/05/24 07:58:02;;;;;;;0.30;0.30;;;;;;;;;;5033576;28;20236;-79
2022/05/24 08:00:31;;;;;;;0.40;0.40;;;;;;;;;;5038153;28;20201;-79
2022/05/24 08:03:02;;;;;;;0.30;0.30;;;;;;;;;;5026446;28;20202;-81
2022/05/24 08:05:32;;;;;;;0.40;0.40;;;;;;;;;;5026002;28;20210;-79
2022/05/24 08:08:03;;;;;;;0.30;0.30;;;;;;;;;;5046533;28;20224;-80
2022/05/24 08:10:38;;;;;;;0.40;0.40;;;;;;;;;;5032416;28;20243;-80
2022/05/24 08:13:10;;;;;;;0.30;0.30;;;;;;;;;;5035951;28;20204;-77
2022/05/24 08:15:40;;;;;;;0.30;0.30;;;;;;;;;;5031404;28;20256;-78
2022/05/24 08:18:13;;;;;;;0.40;0.40;;;;;;;;;;5034731;28;20206;-78
2022/05/24 08:20:43;;;;;;;0.30;0.30;;;;;;;;;;5050030;28;20219;-79
2022/05/24 08:23:16;;;;;;;0.30;0.30;;;;;;;;;;5034920;28;20291;-79
2022/05/24 08:25:48;;;;;;;0.40;0.40;;;;;;;;;;5037497;28;20201;-78
2022/05/24 08:28:17;;;;;;;0.30;0.30;;;;;;;;;;5035325;28;20255;-78
2022/05/24 08:30:47;;;;;;;0.40;0.40;;;;;;;;;;5036050;28;20238;-79
2022/05/24 08:33:17;;;;;;;0.40;0.40;;;;;;;;;;5034940;28;20206;-79
2022/05/24 08:35:46;;;;;;;0.30;0.30;;;;;;;;;;5035284;28;20201;-79
2022/05/24 08:38:21;;;;;;;0.30;0.30;;;;;;;;;;5031461;28;20260;-79
2022/05/24 08:41:09;;;;;;;0.40;0.40;;;;;;;;;;5029073;28;20201;-78
2022/05/24 08:43:51;;;;;;;0.30;0.30;;;;;;;;;;5025956;28;20201;-78
2022/05/24 08:49:26;;;;;;;0.30;0.30;;;;;;;;;;5029002;28;20208;-80
2022/05/24 08:51:59;;;;;;;0.40;0.40;;;;;;;;;;5031585;28;20197;-80
2022/05/24 08:54:37;;;;;;;0.30;0.30;;;;;;;;;;5025497;28;20235;-81
2022/05/24 08:57:36;;;;;;;0.30;0.30;;;;;;;;;;5024169;28;20227;-79
2022/05/24 09:00:30;;;;;;;0.40;0.40;;;;;;;;;;5023241;28;20295;-80
2022/05/24 09:03:30;;;;;;;3.60;3.40;;;;;;;;;;5023059;28;20197;-82
2022/05/24 09:06:51;;;;;;;0.30;0.30;;;;;;;;;;5027904;28;20205;-80
2022/05/24 09:10:18;;;;;;;0.40;0.40;;;;;;;;;;4914599;28;20225;-79
2022/05/24 09:13:27;;;;;;;0.40;0.40;;;;;;;;;;5024596;28;20309;-80
2022/05/24 09:16:17;;;;;;;0.40;0.40;;;;;;;;;;5024970;28;20209;-80
2022/05/24 09:18:54;;;;;;;0.40;0.40;;;;;;;;;;5022416;28;20221;-79
2022/05/24 09:21:26;;;;;;;0.40;0.40;;;;;;;;;;5019508;28;20232;-80
2022/05/24 09:24:00;;;;;;;0.40;0.40;;;;;;;;;;5020790;28;20224;-80
2022/05/24 09:26:53;;;;;;;0.40;0.40;;;;;;;;;;5024875;28;20217;-81
2022/05/24 09:29:31;;;;;;;0.40;0.40;;;;;;;;;;5020139;28;20204;-81
2022/05/24 09:32:14;;;;;;;0.40;0.40;;;;;;;;;;5044870;28;20207;-81
2022/05/24 09:35:14;;;;;;;0.40;0.40;;;;;;;;;;5024638;28;20207;-81
2022/05/24 09:37:45;;;;;;;0.30;0.30;;;;;;;;;;5023800;28;20214;-80
2022/05/24 09:40:19;;;;;;;0.40;0.40;;;;;;;;;;5041855;28;20276;-80
2022/05/24 09:42:53;;;;;;;0.40;0.40;;;;;;;;;;5029160;28;20200;-82
2022/05/24 09:45:38;;;;;;;0.40;0.40;;;;;;;;;;5021559;28;20217;-80
2022/05/24 09:48:26;;;;;;;0.40;0.40;;;;;;;;;;5025694;28;20205;-81
2022/05/24 09:51:04;;;;;;;0.40;0.40;;;;;;;;;;5026506;28;20237;-80
2022/05/24 09:53:48;;;;;;;0.30;0.30;;;;;;;;;;5028735;28;20208;-79
2022/05/24 09:56:25;;;;;;;0.40;0.40;;;;;;;;;;5027583;28;20214;-81
2022/05/24 09:58:55;;;;;;;0.63;0.63;;;;;;;;;;5028025;28;20263;-80
2022/05/24 10:01:35;;;;;;;0.40;0.40;;;;;;;;;;5039642;28;20201;-79
2022/05/24 10:04:12;;;;;;;0.40;0.40;;;;;;;;;;5028504;28;20233;-80
2022/05/24 10:06:44;;;;;;;0.40;0.40;;;;;;;;;;5023875;28;20221;-79
2022/05/24 10:09:27;;;;;;;0.30;0.30;;;;;;;;;;5027675;28;20216;-79
2022/05/24 10:11:57;;;;;;;0.40;0.40;;;;;;;;;;5026127;28;20222;-79
2022/05/24 10:14:32;;;;;;;0.40;0.40;;;;;;;;;;5026929;28;20201;-79
2022/05/24 10:17:08;;;;;;;0.40;0.40;;;;;;;;;;5018664;28;20211;-80
2022/05/24 10:19:41;;;;;;;0.30;0.30;;;;;;;;;;5026067;28;20214;-80
2022/05/24 10:22:17;;;;;;;0.40;0.40;;;;;;;;;;5031868;28;20295;-80
2022/05/24 10:24:54;;;;;;;0.30;0.30;;;;;;;;;;5030893;28;20207;-80
2022/05/24 10:27:27;;;;;;;0.40;0.40;;;;;;;;;;5035921;28;20565;-81
2022/05/24 10:30:12;;;;;;;0.40;0.40;;;;;;;;;;5025334;28;20210;-80
2022/05/24 10:39:11;;;;;;;0.47;0.47;;;;;;;;;;5038586;28;20280;-82
2022/05/24 10:42:21;;;;;;;0.30;0.30;;;;;;;;;;5025242;28;20193;-82
2022/05/24 10:45:25;;;;;;;0.30;0.30;;;;;;;;;;5018208;28;20209;-82
2022/05/24 10:48:34;;;;;;;;;;;;;;;;;;;;;
2022/05/24 10:58:31;;;;;;;67.73;24.77;;;;;;;;;;5031616;28;20316;-80
2022/05/24 11:01:06;;;;;;;56.90;21.77;;;;;;;;;;5027064;28;20205;-79
2022/05/24 11:03:41;;;;;;;42.50;17.70;;;;;;;;;;5027362;28;20205;-81
2022/05/24 11:06:25;;;;;;;18.40;11.13;;;;;;;;;;5028100;28;20207;-81
2022/05/24 11:09:04;;;;;;;22.43;14.00;;;;;;;;;;5040415;28;20268;-81
2022/05/24 11:11:38;;;;;;;9.53;5.47;;;;;;;;;;5030467;28;20225;-81
2022/05/24 11:14:14;;;;;;;21.63;12.20;;;;;;;;;;5029261;28;20202;-81
2022/05/24 11:16:55;;;;;;;28.40;11.77;;;;;;;;;;5026223;28;20790;-80
2022/05/24 11:19:25;;;;;;;36.43;15.27;;;;;;;;;;5043724;28;20281;-81
2022/05/24 11:21:59;;;;;;;22.60;11.40;;;;;;;;;;5030383;28;20288;-82
2022/05/24 11:24:35;;;;;;;21.40;10.30;;;;;;;;;;5024181;28;20206;-81
2022/05/24 11:27:09;;;;;;;13.03;10.57;;;;;;;;;;5043240;28;20202;-81
2022/05/24 11:29:46;;;;;;;14.10;9.10;;;;;;;;;;5042604;28;20217;-81
2022/05/24 11:32:23;;;;;;;8.90;7.07;;;;;;;;;;5043348;28;20218;-81
2022/05/24 11:35:42;;;;;;;;;;;;;;;;;;;;;
2022/05/24 11:38:41;;;;;;;9.93;7.90;;;;;;;;;;5044243;28;20343;-79
2022/05/24 11:44:37;;;;;;;6.07;5.47;;;;;;;;;;5021961;28;20212;-80
2022/05/24 11:47:06;;;;;;;12.13;6.73;;;;;;;;;;5032455;28;20222;-81
2022/05/24 11:50:05;;;;;;;8.83;5.00;;;;;;;;;;5025318;28;20292;-80
2022/05/24 11:52:48;;;;;;;12.37;7.27;;;;;;;;;;5031549;28;20279;-80
2022/05/24 11:55:43;;;;;;;8.53;6.20;;;;;;;;;;5034382;28;20264;-81
2022/05/24 11:58:39;;;;;;;13.57;6.60;;;;;;;;;;5030651;28;20248;-80
2022/05/24 12:01:32;;;;;;;6.57;4.67;;;;;;;;;;5021509;28;20201;-79
2022/05/24 12:10:31;;;;;;;7.90;3.77;;;;;;;;;;5045278;28;20206;-80
2022/05/24 12:13:18;;;;;;;8.30;4.50;;;;;;;;;;5033284;28;20222;-79
2022/05/24 12:15:57;;;;;;;3.80;2.67;;;;;;;;;;5035675;28;20214;-80
2022/05/24 12:18:45;;;;;;;5.97;4.27;;;;;;;;;;5049641;28;20293;-80
2022/05/24 12:21:28;;;;;;;3.33;3.13;;;;;;;;;;5027244;28;20257;-81
2022/05/24 12:24:25;;;;;;;13.50;5.83;;;;;;;;;;5033940;28;20212;-80
2022/05/24 12:27:18;;;;;;;6.80;4.80;;;;;;;;;;5044243;28;20214;-83
2022/05/24 12:29:59;;;;;;;3.33;2.97;;;;;;;;;;5012611;28;20328;-80
2022/05/24 12:32:53;;;;;;;4.00;2.83;;;;;;;;;;5026634;28;20214;-80
2022/05/24 12:35:24;;;;;;;4.53;3.27;;;;;;;;;;4994055;28;20209;-80
2022/05/24 12:37:59;;;;;;;3.97;2.77;;;;;;;;;;5024053;28;20220;-79
2022/05/24 12:40:28;;;;;;;4.17;3.83;;;;;;;;;;5028480;28;20202;-79
2022/05/24 12:46:01;;;;;;;5.50;2.20;;;;;;;;;;5024212;28;20198;-81
2022/05/24 12:48:34;;;;;;;7.93;3.73;;;;;;;;;;5026348;28;20216;-81
2022/05/24 12:51:26;;;;;;;4.17;2.87;;;;;;;;;;5022518;28;20204;-79
2022/05/24 12:54:23;;;;;;;3.27;2.57;;;;;;;;;;5044379;28;20220;-81
2022/05/24 12:57:01;;;;;;;4.00;3.37;;;;;;;;;;5026045;28;20202;-81
2022/05/24 12:59:49;;;;;;;2.70;2.33;;;;;;;;;;5028548;28;20248;-81
2022/05/24 13:02:53;;;;;;;2.77;2.10;;;;;;;;;;5020264;28;20351;-82
2022/05/24 13:05:27;;;;;;;6.93;2.67;;;;;;;;;;5027546;28;20213;-80
2022/05/24 13:08:01;;;;;;;5.27;1.90;;;;;;;;;;5032941;28;20198;-81
2022/05/24 13:10:35;;;;;;;5.53;2.33;;;;;;;;;;5028156;28;20221;-82
2022/05/24 13:13:36;;;;;;;3.00;2.13;;;;;;;;;;5031503;28;20214;-83
2022/05/24 13:20:40;;;;;;;4.87;3.07;;;;;;;;;;5029815;28;20228;-81
2022/05/24 13:23:21;;;;;;;2.87;1.67;;;;;;;;;;5034576;28;20204;-81
2022/05/24 13:25:54;;;;;;;1.47;1.37;;;;;;;;;;5032530;28;20305;-80
2022/05/24 13:28:39;;;;;;;1.53;1.30;;;;;;;;;;5031211;28;20208;-82
2022/05/24 13:38:21;;;;;;;2.43;1.53;;;;;;;;;;4986708;28;20215;-84
2022/05/24 14:32:01;;;;;;;5.60;2.47;;;;;;;;;;5553656;23;20281;-85
2022/05/24 14:34:30;;;;;;;1.60;1.23;;;;;;;;;;5009574;28;20195;-86
2022/05/24 14:37:20;;;;;;;2.63;1.87;;;;;;;;;;4994168;28;20225;-83
2022/05/24 14:40:06;;;;;;;;;;;;;;;;;;;;;
2022/05/24 14:42:47;;;;;;;;;;;;;;;;;;;;;
2022/05/24 14:45:29;;;;;;;4.13;2.57;;;;;;;;;;4993540;28;20199;-82
2022/05/24 15:26:30;;;;;;;3.07;2.53;;;;;;;;;;4795207;29;20219;-83
2022/05/24 15:29:08;;;;;;;3.50;2.03;;;;;;;;;;4802169;29;20216;-83
2022/05/24 15:31:39;;;;;;;4.47;2.30;;;;;;;;;;4862173;29;20224;-84
2022/05/24 15:34:08;;;;;;;1.40;1.30;;;;;;;;;;4896969;29;20240;-85
2022/05/24 15:36:37;;;;;;;2.90;2.20;;;;;;;;;;4910402;28;20205;-85
2022/05/24 15:39:09;;;;;;;1.77;1.67;;;;;;;;;;4973333;28;20243;-85
2022/05/24 15:41:39;;;;;;;2.23;1.80;;;;;;;;;;4975370;28;20198;-84
2022/05/24 15:44:10;;;;;;;2.03;1.10;;;;;;;;;;4958473;28;20198;-85
2022/05/24 15:46:38;;;;;;;2.50;1.77;;;;;;;;;;4974286;28;20208;-85
2022/05/24 15:49:07;;;;;;;2.23;2.03;;;;;;;;;;4974831;28;20295;-85
2022/05/24 15:51:36;;;;;;;2.27;1.77;;;;;;;;;;4958642;28;20269;-85
2022/05/24 15:54:07;;;;;;;1.40;1.30;;;;;;;;;;4975154;28;20224;-85
2022/05/24 15:56:35;;;;;;;3.30;2.30;;;;;;;;;;4958779;28;20240;-85
2022/05/24 15:59:05;;;;;;;0.93;0.90;;;;;;;;;;4975848;28;20217;-85
2022/05/24 16:01:33;;;;;;;3.37;3.07;;;;;;;;;;4958516;28;20197;-84
2022/05/24 16:04:02;;;;;;;2.37;1.67;;;;;;;;;;4974488;28;20205;-85
2022/05/24 16:12:01;;;;;;;1.30;1.20;;;;;;;;;;4974703;28;20205;-84
2022/05/24 16:14:33;;;;;;;4.73;1.90;;;;;;;;;;4975362;28;20226;-85
2022/05/24 16:17:02;;;;;;;2.77;1.97;;;;;;;;;;4958941;28;20207;-84
2022/05/24 16:19:32;;;;;;;1.43;1.20;;;;;;;;;;4959234;28;20208;-85
2022/05/24 16:22:01;;;;;;;2.20;1.53;;;;;;;;;;4975192;28;20199;-85
2022/05/24 16:24:32;;;;;;;2.80;0.83;;;;;;;;;;4959203;28;20215;-85
2022/05/24 16:27:01;;;;;;;5.23;1.43;;;;;;;;;;4974522;28;20212;-85
2022/05/24 16:29:29;;;;;;;2.83;1.30;;;;;;;;;;4974479;28;20233;-85
2022/05/24 16:31:59;;;;;;;4.73;2.20;;;;;;;;;;4958017;28;20209;-85
2022/05/24 16:34:27;;;;;;;5.20;1.40;;;;;;;;;;4958118;28;20223;-85
2022/05/24 16:36:56;;;;;;;1.30;1.20;;;;;;;;;;4974792;28;20205;-84
2022/05/24 16:39:25;;;;;;;1.67;1.50;;;;;;;;;;4957657;28;20216;-85
2022/05/24 16:41:54;;;;;;;2.93;1.87;;;;;;;;;;4957879;28;20203;-85
2022/05/24 16:44:29;;;;;;;2.23;1.80;;;;;;;;;;4957893;28;20303;-85
2022/05/24 16:46:58;;;;;;;1.80;1.70;;;;;;;;;;4974432;28;20296;-85
2022/05/24 16:49:27;;;;;;;3.90;1.43;;;;;;;;;;4958156;28;20209;-85
2022/05/24 16:52:03;;;;;;;5.50;2.13;;;;;;;;;;4974847;28;20201;-85
2022/05/24 17:00:04;;;;;;;5.23;2.00;;;;;;;;;;4958223;28;20200;-85
2022/05/24 17:02:34;;;;;;;2.73;1.40;;;;;;;;;;4957631;28;20238;-85
2022/05/24 17:05:03;;;;;;;2.37;0.93;;;;;;;;;;4973755;28;20195;-86
2022/05/24 17:07:31;;;;;;;1.03;1.03;;;;;;;;;;4957132;28;20300;-84
2022/05/24 17:10:00;;;;;;;1.57;1.47;;;;;;;;;;4973745;28;20302;-84
2022/05/24 17:12:30;;;;;;;1.70;1.23;;;;;;;;;;4958265;28;20214;-84
2022/05/24 17:14:58;;;;;;;1.47;1.37;;;;;;;;;;4957694;28;20223;-84
2022/05/24 17:17:27;;;;;;;0.70;0.70;;;;;;;;;;4957833;28;20215;-85
2022/05/24 17:19:56;;;;;;;3.10;1.07;;;;;;;;;;4958069;28;20217;-85
2022/05/24 17:22:25;;;;;;;2.30;1.60;;;;;;;;;;4959316;28;20234;-85
2022/05/24 17:24:53;;;;;;;1.10;0.97;;;;;;;;;;4976289;28;20218;-85
2022/05/24 17:27:22;;;;;;;1.83;1.27;;;;;;;;;;4959851;28;20200;-85
2022/05/24 17:29:50;;;;;;;1.30;1.20;;;;;;;;;;4958917;28;20215;-85
2022/05/24 17:32:21;;;;;;;1.83;1.23;;;;;;;;;;4975004;28;20291;-85
2022/05/24 17:34:49;;;;;;;2.13;1.10;;;;;;;;;;4959531;28;20496;-85
2022/05/24 17:37:20;;;;;;;1.30;1.20;;;;;;;;;;4974869;28;20219;-85
2022/05/24 17:39:48;;;;;;;1.60;1.50;;;;;;;;;;4974983;28;20312;-85
2022/05/24 17:42:19;;;;;;;2.50;1.77;;;;;;;;;;4957651;28;20208;-85
2022/05/24 17:44:48;;;;;;;2.37;0.90;;;;;;;;;;4957132;28;20211;-85
2022/05/24 17:47:16;;;;;;;2.77;1.17;;;;;;;;;;4957188;28;20205;-85
2022/05/24 17:49:47;;;;;;;1.87;1.27;;;;;;;;;;4974189;28;20203;-85
2022/05/24 17:52:17;;;;;;;1.10;1.10;;;;;;;;;;4960401;28;20214;-85
2022/05/24 17:55:07;;;;;;;10.63;1.60;;;;;;;;;;4960341;28;20231;-85
2022/05/24 17:57:35;;;;;;;4.07;1.23;;;;;;;;;;4960561;28;20228;-85
2022/05/24 18:00:05;;;;;;;0.83;0.83;;;;;;;;;;4961024;28;20204;-85
2022/05/24 18:02:36;;;;;;;2.20;1.20;;;;;;;;;;4976782;28;20202;-85
2022/05/24 18:05:04;;;;;;;2.20;1.40;;;;;;;;;;4960609;28;20207;-85
2022/05/24 18:07:33;;;;;;;1.00;0.70;;;;;;;;;;4960293;28;20209;-85
2022/05/24 18:10:08;;;;;;;0.90;0.90;;;;;;;;;;4960702;28;20203;-85
2022/05/24 18:12:38;;;;;;;1.03;0.93;;;;;;;;;;4960401;28;20205;-85
2022/05/24 18:15:07;;;;;;;2.90;1.37;;;;;;;;;;4960507;28;20341;-85
2022/05/24 18:17:36;;;;;;;1.20;1.20;;;;;;;;;;4977444;28;20199;-84
2022/05/24 18:20:05;;;;;;;0.93;0.87;;;;;;;;;;4976316;28;20220;-85